sensor_id;sensor_type;location;lat;lon;timestamp;temperature;humidity
5520;DHT22;2782;52.362;10.012;2022-11-03T00:06:31;20.20;94.90
5520;DHT22;2782;52.362;10.012;2022-11-03T00:13:14;20.20;94.90
5520;DHT22;2782;52.362;10.012;2022-11-03T00:19:58;20.20;94.90
5520;DHT22;2782;52.362;10.012;2022-11-03T00:26:41;20.10;94.90
5520;DHT22;2782;52.362;10.012;2022-11-03T00:33:23;20.10;94.90
5520;DHT22;2782;52.362;10.012;2022-11-03T00:40:10;20.10;95.00
5520;DHT22;2782;52.362;10.012;2022-11-03T00:46:52;20.00;95.00
5520;DHT22;2782;52.362;10.012;2022-11-03T00:53:36;20.00;95.00
5520;DHT22;2782;52.362;10.012;2022-11-03T01:00:20;20.00;95.00
5520;DHT22;2782;52.362;10.012;2022-11-03T01:07:04;19.90;95.00
5520;DHT22;2782;52.362;10.012;2022-11-03T01:13:47;19.90;95.10
5520;DHT22;2782;52.362;10.012;2022-11-03T01:20:31;19.90;95.10
5520;DHT22;2782;52.362;10.012;2022-11-03T01:27:15;19.80;95.00
5520;DHT22;2782;52.362;10.012;2022-11-03T01:33:57;19.80;95.10
5520;DHT22;2782;52.362;10.012;2022-11-03T01:40:41;19.80;95.10
5520;DHT22;2782;52.362;10.012;2022-11-03T01:47:26;19.80;95.20
5520;DHT22;2782;52.362;10.012;2022-11-03T01:54:12;19.70;95.10
5520;DHT22;2782;52.362;10.012;2022-11-03T02:00:59;19.70;95.20
5520;DHT22;2782;52.362;10.012;2022-11-03T02:07:45;19.70;95.20
5520;DHT22;2782;52.362;10.012;2022-11-03T02:14:31;19.70;95.20
5520;DHT22;2782;52.362;10.012;2022-11-03T02:21:24;19.70;95.20
5520;DHT22;2782;52.362;10.012;2022-11-03T02:28:10;19.60;95.20
5520;DHT22;2782;52.362;10.012;2022-11-03T02:34:59;19.60;95.20
5520;DHT22;2782;52.362;10.012;2022-11-03T02:41:45;19.60;95.20
5520;DHT22;2782;52.362;10.012;2022-11-03T02:48:30;19.50;95.20
5520;DHT22;2782;52.362;10.012;2022-11-03T02:55:17;19.60;95.30
5520;DHT22;2782;52.362;10.012;2022-11-03T03:02:05;19.50;95.30
5520;DHT22;2782;52.362;10.012;2022-11-03T03:08:55;19.50;95.20
5520;DHT22;2782;52.362;10.012;2022-11-03T03:15:43;19.50;95.30
5520;DHT22;2782;52.362;10.012;2022-11-03T03:22:29;19.40;95.40
5520;DHT22;2782;52.362;10.012;2022-11-03T03:29:17;19.50;95.60
5520;DHT22;2782;52.362;10.012;2022-11-03T03:36:02;19.40;95.80
5520;DHT22;2782;52.362;10.012;2022-11-03T03:42:46;19.40;95.90
5520;DHT22;2782;52.362;10.012;2022-11-03T03:49:31;19.40;96.10
5520;DHT22;2782;52.362;10.012;2022-11-03T03:56:13;19.40;96.50
5520;DHT22;2782;52.362;10.012;2022-11-03T04:02:56;19.30;96.20
5520;DHT22;2782;52.362;10.012;2022-11-03T04:09:40;19.40;96.30
5520;DHT22;2782;52.362;10.012;2022-11-03T04:16:23;19.30;96.30
5520;DHT22;2782;52.362;10.012;2022-11-03T04:23:23;19.30;96.30
5520;DHT22;2782;52.362;10.012;2022-11-03T04:30:13;19.30;96.40
5520;DHT22;2782;52.362;10.012;2022-11-03T04:36:57;19.30;96.50
5520;DHT22;2782;52.362;10.012;2022-11-03T04:43:40;19.30;96.50
5520;DHT22;2782;52.362;10.012;2022-11-03T04:50:25;19.30;96.50
5520;DHT22;2782;52.362;10.012;2022-11-03T04:57:10;19.20;96.50
5520;DHT22;2782;52.362;10.012;2022-11-03T05:03:54;19.20;96.60
5520;DHT22;2782;52.362;10.012;2022-11-03T05:10:38;19.20;96.60
5520;DHT22;2782;52.362;10.012;2022-11-03T05:17:23;19.20;96.50
5520;DHT22;2782;52.362;10.012;2022-11-03T05:24:10;19.20;96.40
5520;DHT22;2782;52.362;10.012;2022-11-03T05:30:56;19.10;96.30
5520;DHT22;2782;52.362;10.012;2022-11-03T05:37:38;19.10;96.40
5520;DHT22;2782;52.362;10.012;2022-11-03T05:44:27;19.20;96.90
5520;DHT22;2782;52.362;10.012;2022-11-03T05:51:17;19.20;99.30
5520;DHT22;2782;52.362;10.012;2022-11-03T05:58:04;19.30;98.50
5520;DHT22;2782;52.362;10.012;2022-11-03T06:04:53;19.30;97.30
5520;DHT22;2782;52.362;10.012;2022-11-03T06:11:37;19.30;97.40
5520;DHT22;2782;52.362;10.012;2022-11-03T06:18:21;19.30;97.50
5520;DHT22;2782;52.362;10.012;2022-11-03T06:25:13;19.30;97.70
5520;DHT22;2782;52.362;10.012;2022-11-03T06:32:00;19.30;99.30
5520;DHT22;2782;52.362;10.012;2022-11-03T06:38:44;19.40;98.50
5520;DHT22;2782;52.362;10.012;2022-11-03T06:45:30;19.30;98.00
5520;DHT22;2782;52.362;10.012;2022-11-03T06:52:22;19.30;97.60
5520;DHT22;2782;52.362;10.012;2022-11-03T06:59:08;19.30;98.40
5520;DHT22;2782;52.362;10.012;2022-11-03T07:05:56;19.30;98.30
5520;DHT22;2782;52.362;10.012;2022-11-03T07:12:40;19.40;98.40
5520;DHT22;2782;52.362;10.012;2022-11-03T07:19:26;19.50;98.40
5520;DHT22;2782;52.362;10.012;2022-11-03T07:26:10;19.50;98.40
5520;DHT22;2782;52.362;10.012;2022-11-03T07:32:59;19.50;98.40
5520;DHT22;2782;52.362;10.012;2022-11-03T07:39:41;19.30;82.50
5520;DHT22;2782;52.362;10.012;2022-11-03T07:46:24;19.20;91.10
5520;DHT22;2782;52.362;10.012;2022-11-03T07:53:12;19.20;91.40
5520;DHT22;2782;52.362;10.012;2022-11-03T07:59:57;19.30;92.00
5520;DHT22;2782;52.362;10.012;2022-11-03T08:06:40;19.30;92.50
5520;DHT22;2782;52.362;10.012;2022-11-03T08:13:24;19.30;93.10
5520;DHT22;2782;52.362;10.012;2022-11-03T08:20:07;19.30;93.50
5520;DHT22;2782;52.362;10.012;2022-11-03T08:26:49;19.30;93.90
5520;DHT22;2782;52.362;10.012;2022-11-03T08:33:34;19.30;94.10
5520;DHT22;2782;52.362;10.012;2022-11-03T08:40:17;19.30;94.30
5520;DHT22;2782;52.362;10.012;2022-11-03T08:46:59;19.30;94.60
5520;DHT22;2782;52.362;10.012;2022-11-03T08:53:43;19.30;94.70
5520;DHT22;2782;52.362;10.012;2022-11-03T09:00:26;19.30;94.90
5520;DHT22;2782;52.362;10.012;2022-11-03T09:07:08;19.30;95.10
5520;DHT22;2782;52.362;10.012;2022-11-03T09:13:52;19.30;95.20
5520;DHT22;2782;52.362;10.012;2022-11-03T09:20:35;19.30;95.40
5520;DHT22;2782;52.362;10.012;2022-11-03T09:27:18;19.30;95.60
5520;DHT22;2782;52.362;10.012;2022-11-03T09:34:02;19.30;95.70
5520;DHT22;2782;52.362;10.012;2022-11-03T09:40:44;19.30;95.90
5520;DHT22;2782;52.362;10.012;2022-11-03T09:47:30;19.30;96.00
5520;DHT22;2782;52.362;10.012;2022-11-03T09:54:16;19.30;96.10
5520;DHT22;2782;52.362;10.012;2022-11-03T10:00:59;19.20;96.10
5520;DHT22;2782;52.362;10.012;2022-11-03T10:07:43;19.20;96.20
5520;DHT22;2782;52.362;10.012;2022-11-03T10:14:28;19.20;96.30
5520;DHT22;2782;52.362;10.012;2022-11-03T10:21:14;19.20;96.40
5520;DHT22;2782;52.362;10.012;2022-11-03T10:28:11;19.20;96.50
5520;DHT22;2782;52.362;10.012;2022-11-03T10:34:55;19.20;96.50
5520;DHT22;2782;52.362;10.012;2022-11-03T10:41:54;19.20;96.60
5520;DHT22;2782;52.362;10.012;2022-11-03T10:48:37;19.20;96.70
5520;DHT22;2782;52.362;10.012;2022-11-03T10:55:24;19.20;96.90
5520;DHT22;2782;52.362;10.012;2022-11-03T11:02:14;19.20;97.10
5520;DHT22;2782;52.362;10.012;2022-11-03T11:09:01;19.20;97.70
5520;DHT22;2782;52.362;10.012;2022-11-03T11:15:47;19.20;98.50
5520;DHT22;2782;52.362;10.012;2022-11-03T11:22:30;19.20;98.80
5520;DHT22;2782;52.362;10.012;2022-11-03T11:29:42;19.20;98.80
5520;DHT22;2782;52.362;10.012;2022-11-03T11:36:27;19.20;98.60
5520;DHT22;2782;52.362;10.012;2022-11-03T11:43:25;19.20;98.70
5520;DHT22;2782;52.362;10.012;2022-11-03T11:50:29;19.20;98.60
5520;DHT22;2782;52.362;10.012;2022-11-03T11:57:19;19.20;98.50
5520;DHT22;2782;52.362;10.012;2022-11-03T12:04:05;19.20;98.40
5520;DHT22;2782;52.362;10.012;2022-11-03T12:10:52;19.20;98.30
5520;DHT22;2782;52.362;10.012;2022-11-03T12:17:36;19.10;98.20
5520;DHT22;2782;52.362;10.012;2022-11-03T12:24:35;19.10;98.10
5520;DHT22;2782;52.362;10.012;2022-11-03T12:31:18;19.10;96.90
5520;DHT22;2782;52.362;10.012;2022-11-03T12:38:02;19.00;96.70
5520;DHT22;2782;52.362;10.012;2022-11-03T12:44:44;18.90;96.70
5520;DHT22;2782;52.362;10.012;2022-11-03T12:51:27;18.90;97.00
5520;DHT22;2782;52.362;10.012;2022-11-03T12:58:11;18.80;97.00
5520;DHT22;2782;52.362;10.012;2022-11-03T13:04:53;18.80;97.00
5520;DHT22;2782;52.362;10.012;2022-11-03T13:11:36;18.80;97.00
5520;DHT22;2782;52.362;10.012;2022-11-03T13:18:37;18.80;97.00
5520;DHT22;2782;52.362;10.012;2022-11-03T13:25:19;18.70;96.90
5520;DHT22;2782;52.362;10.012;2022-11-03T13:32:04;18.70;96.70
5520;DHT22;2782;52.362;10.012;2022-11-03T13:38:48;18.70;96.80
5520;DHT22;2782;52.362;10.012;2022-11-03T13:45:31;18.70;96.80
5520;DHT22;2782;52.362;10.012;2022-11-03T13:52:13;18.70;96.80
5520;DHT22;2782;52.362;10.012;2022-11-03T13:58:57;18.70;96.70
5520;DHT22;2782;52.362;10.012;2022-11-03T14:05:40;18.60;96.80
5520;DHT22;2782;52.362;10.012;2022-11-03T14:12:22;18.60;96.80
5520;DHT22;2782;52.362;10.012;2022-11-03T14:19:16;18.60;96.60
5520;DHT22;2782;52.362;10.012;2022-11-03T14:25:59;18.60;96.70
5520;DHT22;2782;52.362;10.012;2022-11-03T14:32:42;18.60;96.80
5520;DHT22;2782;52.362;10.012;2022-11-03T14:39:25;18.60;96.70
5520;DHT22;2782;52.362;10.012;2022-11-03T14:46:08;18.60;96.70
5520;DHT22;2782;52.362;10.012;2022-11-03T14:52:51;18.60;96.70
5520;DHT22;2782;52.362;10.012;2022-11-03T14:59:35;18.50;96.70
5520;DHT22;2782;52.362;10.012;2022-11-03T15:06:17;18.50;96.50
5520;DHT22;2782;52.362;10.012;2022-11-03T15:13:00;18.50;96.60
5520;DHT22;2782;52.362;10.012;2022-11-03T15:19:44;18.50;96.60
5520;DHT22;2782;52.362;10.012;2022-11-03T15:26:26;18.50;96.60
5520;DHT22;2782;52.362;10.012;2022-11-03T15:33:09;18.50;96.50
5520;DHT22;2782;52.362;10.012;2022-11-03T15:39:53;18.50;96.60
5520;DHT22;2782;52.362;10.012;2022-11-03T15:46:35;18.50;96.60
5520;DHT22;2782;52.362;10.012;2022-11-03T15:53:18;18.40;96.60
5520;DHT22;2782;52.362;10.012;2022-11-03T16:00:02;18.40;96.50
5520;DHT22;2782;52.362;10.012;2022-11-03T16:06:46;18.40;96.60
5520;DHT22;2782;52.362;10.012;2022-11-03T16:13:28;18.40;96.60
5520;DHT22;2782;52.362;10.012;2022-11-03T16:20:12;18.50;96.50
5520;DHT22;2782;52.362;10.012;2022-11-03T16:26:55;18.50;96.40
5520;DHT22;2782;52.362;10.012;2022-11-03T16:33:37;18.50;96.10
5520;DHT22;2782;52.362;10.012;2022-11-03T16:40:21;18.50;96.20
5520;DHT22;2782;52.362;10.012;2022-11-03T16:47:04;18.50;96.10
5520;DHT22;2782;52.362;10.012;2022-11-03T16:53:46;18.50;96.10
5520;DHT22;2782;52.362;10.012;2022-11-03T17:00:30;18.50;96.00
5520;DHT22;2782;52.362;10.012;2022-11-03T17:07:13;18.50;96.90
5520;DHT22;2782;52.362;10.012;2022-11-03T17:13:56;18.60;96.90
5520;DHT22;2782;52.362;10.012;2022-11-03T17:20:39;18.70;96.70
5520;DHT22;2782;52.362;10.012;2022-11-03T17:27:24;18.80;96.70
5520;DHT22;2782;52.362;10.012;2022-11-03T17:34:08;18.80;97.00
5520;DHT22;2782;52.362;10.012;2022-11-03T17:40:53;18.90;97.70
5520;DHT22;2782;52.362;10.012;2022-11-03T17:47:36;19.00;98.40
5520;DHT22;2782;52.362;10.012;2022-11-03T17:54:19;19.00;98.90
5520;DHT22;2782;52.362;10.012;2022-11-03T18:01:04;19.10;99.40
5520;DHT22;2782;52.362;10.012;2022-11-03T18:07:49;19.20;99.50
5520;DHT22;2782;52.362;10.012;2022-11-03T18:14:32;19.30;99.90
5520;DHT22;2782;52.362;10.012;2022-11-03T18:21:18;19.30;99.90
5520;DHT22;2782;52.362;10.012;2022-11-03T18:28:02;19.40;99.90
5520;DHT22;2782;52.362;10.012;2022-11-03T18:42:35;19.30;94.30
5520;DHT22;2782;52.362;10.012;2022-11-03T18:49:18;18.80;86.30
5520;DHT22;2782;52.362;10.012;2022-11-03T19:17:38;22.10;84.00
5520;DHT22;2782;52.362;10.012;2022-11-03T19:24:20;21.20;88.50
5520;DHT22;2782;52.362;10.012;2022-11-03T19:31:02;20.60;92.30
5520;DHT22;2782;52.362;10.012;2022-11-03T19:37:46;20.30;94.00
5520;DHT22;2782;52.362;10.012;2022-11-03T19:44:28;20.10;94.80
5520;DHT22;2782;52.362;10.012;2022-11-03T19:51:11;20.10;95.00
5520;DHT22;2782;52.362;10.012;2022-11-03T19:57:56;20.00;95.90
5520;DHT22;2782;52.362;10.012;2022-11-03T20:04:38;20.00;96.10
5520;DHT22;2782;52.362;10.012;2022-11-03T20:11:20;20.00;96.00
5520;DHT22;2782;52.362;10.012;2022-11-03T20:18:03;20.00;96.00
5520;DHT22;2782;52.362;10.012;2022-11-03T20:24:47;20.00;95.70
5520;DHT22;2782;52.362;10.012;2022-11-03T20:31:29;20.00;95.90
5520;DHT22;2782;52.362;10.012;2022-11-03T20:38:14;19.90;96.30
5520;DHT22;2782;52.362;10.012;2022-11-03T20:44:58;19.90;96.20
5520;DHT22;2782;52.362;10.012;2022-11-03T20:51:41;19.90;96.40
5520;DHT22;2782;52.362;10.012;2022-11-03T20:58:25;19.90;96.40
5520;DHT22;2782;52.362;10.012;2022-11-03T21:05:12;19.90;96.60
5520;DHT22;2782;52.362;10.012;2022-11-03T21:11:54;19.90;96.30
5520;DHT22;2782;52.362;10.012;2022-11-03T21:18:37;19.90;96.10
5520;DHT22;2782;52.362;10.012;2022-11-03T21:25:48;19.90;96.50
5520;DHT22;2782;52.362;10.012;2022-11-03T21:32:30;19.90;96.60
5520;DHT22;2782;52.362;10.012;2022-11-03T21:39:13;19.90;96.40
5520;DHT22;2782;52.362;10.012;2022-11-03T21:46:03;19.90;97.10
5520;DHT22;2782;52.362;10.012;2022-11-03T21:52:44;19.90;97.30
5520;DHT22;2782;52.362;10.012;2022-11-03T21:59:27;19.90;97.70
5520;DHT22;2782;52.362;10.012;2022-11-03T22:06:09;19.90;98.10
5520;DHT22;2782;52.362;10.012;2022-11-03T22:12:51;20.00;98.90
5520;DHT22;2782;52.362;10.012;2022-11-03T22:19:34;20.30;99.60
5520;DHT22;2782;52.362;10.012;2022-11-03T22:26:35;20.50;99.60
5520;DHT22;2782;52.362;10.012;2022-11-03T22:33:36;20.70;98.70
5520;DHT22;2782;52.362;10.012;2022-11-03T22:40:40;20.90;98.10
5520;DHT22;2782;52.362;10.012;2022-11-03T22:47:40;21.00;96.70
5520;DHT22;2782;52.362;10.012;2022-11-03T22:54:21;21.10;95.90
5520;DHT22;2782;52.362;10.012;2022-11-03T23:01:06;21.10;95.70
5520;DHT22;2782;52.362;10.012;2022-11-03T23:07:48;20.70;85.10
5520;DHT22;2782;52.362;10.012;2022-11-03T23:14:29;20.50;90.20
5520;DHT22;2782;52.362;10.012;2022-11-03T23:21:35;20.30;90.50
5520;DHT22;2782;52.362;10.012;2022-11-03T23:28:17;20.30;90.70
5520;DHT22;2782;52.362;10.012;2022-11-03T23:34:59;20.30;91.20
5520;DHT22;2782;52.362;10.012;2022-11-03T23:41:44;20.30;91.60
5520;DHT22;2782;52.362;10.012;2022-11-03T23:48:25;20.20;92.00
5520;DHT22;2782;52.362;10.012;2022-11-03T23:55:24;20.20;92.40
